Time;durP1;ratioP1;P1;durP2;ratioP2;P2;SDS_P1;SDS_P2;PMS_P1;PMS_P2;Temp;Humidity;BMP_temperature;BMP_pressure;BME280_temperature;BME280_humidity;BME280_pressure;Samples;Min_cycle;Max_cycle;Signal;HPM_P1;HPM_P2
2023/03/19 00:01:06;;;;;;;;;;;;;;;16.62;44.23;101400.06;4997524;28;1260;-43
2023/03/19 00:03:32;;;;;;;;;;;;;;;18.46;40.83;101393.31;4997197;28;1124;-46
2023/03/19 00:05:57;;;;;;;;;;;;;;;17.12;43.51;101397.25;4994079;28;886;-42
2023/03/19 00:08:23;;;;;;;;;;;;;;;16.72;43.86;101400.16;4986098;28;1073;-44
2023/03/19 00:10:48;;;;;;;;;;;;;;;17.62;42.39;101393.19;4997035;28;1096;-43
2023/03/19 00:13:14;;;;;;;;;;;;;;;16.69;44.17;101392.44;4997046;28;1898;-43
2023/03/19 00:15:40;;;;;;;;;;;;;;;18.06;41.74;101390.16;4996860;28;1172;-46
2023/03/19 00:18:06;;;;;;;;;;;;;;;17.69;42.18;101392.97;4996052;28;964;-46
2023/03/19 00:20:31;;;;;;;;;;;;;;;16.93;43.67;101394.88;4996938;28;1093;-48
2023/03/19 00:22:57;;;;;;;;;;;;;;;16.53;44.23;101396.09;4999449;28;1180;-42
2023/03/19 00:25:23;;;;;;;;;;;;;;;16.68;44.31;101392.69;5000671;28;1083;-47
2023/03/19 00:27:48;;;;;;;;;;;;;;;17.14;43.64;101393.16;5000711;28;1120;-47
2023/03/19 00:30:14;;;;;;;;;;;;;;;16.48;44.82;101393.28;5000602;28;1105;-45
2023/03/19 00:32:39;;;;;;;;;;;;;;;17.19;43.89;101392.34;5000633;28;1981;-47
2023/03/19 00:35:05;;;;;;;;;;;;;;;16.81;43.99;101391.44;5000891;28;1115;-47
2023/03/19 00:37:31;;;;;;;;;;;;;;;18.15;41.77;101392.41;5000902;28;1076;-43
2023/03/19 00:39:57;;;;;;;;;;;;;;;18.34;40.99;101390.81;5000340;28;1072;-43
2023/03/19 00:42:22;;;;;;;;;;;;;;;17.07;43.62;101387.84;5000979;28;1071;-45
2023/03/19 00:44:48;;;;;;;;;;;;;;;16.72;44.09;101391.91;4998938;28;1132;-43
2023/03/19 00:47:13;;;;;;;;;;;;;;;17.64;42.89;101377.25;4999204;28;998;-47
2023/03/19 00:49:39;;;;;;;;;;;;;;;16.97;43.88;101381.44;5000721;28;1107;-44
2023/03/19 00:52:04;;;;;;;;;;;;;;;16.51;44.39;101387.28;4998658;28;1967;-44
2023/03/19 00:54:31;;;;;;;;;;;;;;;16.59;44.50;101389.56;5000152;28;1076;-45
2023/03/19 00:56:56;;;;;;;;;;;;;;;17.02;43.91;101390.56;5000309;28;1059;-44
2023/03/19 00:59:24;;;;;;;;;;;;;;;16.41;44.72;101382.50;4998775;28;1151;-44
2023/03/19 01:01:50;;;;;;;;;;;;;;;17.75;42.38;101381.75;5000430;28;1040;-44
2023/03/19 01:04:16;;;;;;;;;;;;;;;16.81;44.54;101385.94;4998561;28;1120;-43
2023/03/19 01:06:42;;;;;;;;;;;;;;;18.77;40.17;101393.38;5000302;28;1140;-44
2023/03/19 01:09:09;;;;;;;;;;;;;;;18.17;41.15;101379.19;4999945;28;1159;-43
2023/03/19 01:11:34;;;;;;;;;;;;;;;17.14;43.65;101384.91;4998936;28;1907;-42
2023/03/19 01:14:00;;;;;;;;;;;;;;;16.76;44.02;101384.81;5000297;28;1076;-43
2023/03/19 01:16:26;;;;;;;;;;;;;;;16.64;43.87;101377.81;5000001;28;1123;-45
2023/03/19 01:18:52;;;;;;;;;;;;;;;17.67;42.70;101385.00;5019608;28;1213;-43
2023/03/19 01:21:18;;;;;;;;;;;;;;;16.75;44.29;101377.66;4998921;28;1241;-44
2023/03/19 01:23:46;;;;;;;;;;;;;;;16.51;44.14;101376.28;5031584;28;1182;-45
2023/03/19 01:26:12;;;;;;;;;;;;;;;18.02;41.89;101374.44;4998778;28;1517;-43
2023/03/19 01:28:38;;;;;;;;;;;;;;;16.87;44.24;101373.91;5031108;28;1110;-46
2023/03/19 01:31:05;;;;;;;;;;;;;;;16.51;44.52;101379.03;4998360;28;1338;-44
2023/03/19 01:33:54;;;;;;;;;;;;;;;17.12;43.72;101380.75;4995476;28;1414;-47
2023/03/19 01:36:40;;;;;;;;;;;;;;;16.62;44.44;101380.84;4992328;28;1186;-42
2023/03/19 01:39:06;;;;;;;;;;;;;;;18.16;41.55;101374.78;4998180;28;1472;-43
2023/03/19 01:41:31;;;;;;;;;;;;;;;16.77;44.28;101380.13;4998154;28;1527;-42
2023/03/19 01:44:23;;;;;;;;;;;;;;;16.48;44.61;101368.59;4997039;28;1233;-46
2023/03/19 01:47:06;;;;;;;;;;;;;;;17.35;43.49;101374.88;4998346;28;1345;-45
2023/03/19 01:49:54;;;;;;;;;;;;;;;16.75;44.42;101394.13;4997932;28;1278;-47
2023/03/19 01:52:20;;;;;;;;;;;;;;;18.23;41.66;101383.59;4999599;28;1918;-45
2023/03/19 01:55:06;;;;;;;;;;;;;;;17.78;42.30;101389.44;4984360;28;1352;-42
2023/03/19 01:58:06;;;;;;;;;;;;;;;17.08;43.94;101392.28;4994190;28;1109;-48
2023/03/19 02:00:51;;;;;;;;;;;;;;;17.93;42.08;101385.97;4992812;28;1287;-44
2023/03/19 02:03:16;;;;;;;;;;;;;;;16.90;43.92;101387.16;4978480;28;1209;-46
2023/03/19 02:06:14;;;;;;;;;;;;;;;16.67;44.21;101391.03;4989645;28;1272;-44
2023/03/19 02:08:40;;;;;;;;;;;;;;;16.49;44.05;101401.25;5030650;28;1072;-44
2023/03/19 02:11:06;;;;;;;;;;;;;;;17.08;43.66;101402.41;4997948;28;1231;-45
2023/03/19 02:13:33;;;;;;;;;;;;;;;16.78;44.18;101395.53;4997658;28;1918;-48
2023/03/19 02:15:58;;;;;;;;;;;;;;;16.46;44.32;101398.22;4997069;28;1042;-42
2023/03/19 02:18:24;;;;;;;;;;;;;;;17.31;43.21;101390.25;4981309;28;1147;-46
2023/03/19 02:21:05;;;;;;;;;;;;;;;16.77;44.61;101402.94;4997859;28;1157;-50
2023/03/19 02:23:36;;;;;;;;;;;;;;;18.81;40.39;101395.31;5030033;28;1143;-44
2023/03/19 02:26:14;;;;;;;;;;;;;;;17.50;42.84;101400.81;5012791;28;1179;-41
2023/03/19 02:28:41;;;;;;;;;;;;;;;16.81;44.25;101406.00;4997341;28;1644;-46
2023/03/19 02:31:07;;;;;;;;;;;;;;;16.56;44.35;101403.81;5003771;28;1171;-47
2023/03/19 02:33:33;;;;;;;;;;;;;;;17.41;43.52;101406.81;4995513;28;1993;-42
2023/03/19 02:35:59;;;;;;;;;;;;;;;17.12;43.88;101402.72;4997049;28;1049;-41
2023/03/19 02:38:24;;;;;;;;;;;;;;;16.58;44.53;101415.38;4997441;28;1173;-44
2023/03/19 02:41:00;;;;;;;;;;;;;;;17.83;42.51;101412.59;5013180;28;1068;-47
2023/03/19 02:43:26;;;;;;;;;;;;;;;16.77;44.27;101419.44;4997332;28;1286;-43
2023/03/19 02:45:52;;;;;;;;;;;;;;;16.49;44.38;101416.91;4997553;28;1080;-44
2023/03/19 02:48:18;;;;;;;;;;;;;;;17.86;42.25;101423.88;4998085;28;1104;-46
2023/03/19 02:50:44;;;;;;;;;;;;;;;16.81;44.34;101421.66;4996901;28;1064;-43
2023/03/19 02:53:09;;;;;;;;;;;;;;;16.61;44.83;101425.84;4997950;28;1915;-43
2023/03/19 02:55:35;;;;;;;;;;;;;;;17.19;43.59;101425.31;4998306;28;1132;-45
2023/03/19 02:58:01;;;;;;;;;;;;;;;16.56;44.58;101418.38;4998151;28;1101;-42
2023/03/19 03:00:27;;;;;;;;;;;;;;;17.50;43.13;101425.56;4998249;28;1073;-46
2023/03/19 03:02:54;;;;;;;;;;;;;;;16.86;44.30;101432.69;4997724;28;1259;-44
2023/03/19 03:05:20;;;;;;;;;;;;;;;16.49;44.81;101425.16;5029355;28;1079;-42
2023/03/19 03:07:46;;;;;;;;;;;;;;;16.56;44.80;101423.88;4996552;28;1115;-45
2023/03/19 03:10:11;;;;;;;;;;;;;;;17.19;43.53;101419.81;4996554;28;1375;-44
2023/03/19 03:12:37;;;;;;;;;;;;;;;16.45;45.37;101432.25;4997934;28;1906;-47
2023/03/19 03:15:04;;;;;;;;;;;;;;;18.55;41.01;101419.25;4997805;28;1156;-45
2023/03/19 03:17:30;;;;;;;;;;;;;;;17.20;43.66;101424.25;4996234;28;1131;-44
2023/03/19 03:19:55;;;;;;;;;;;;;;;16.66;44.36;101430.56;4997679;28;1212;-43
2023/03/19 03:22:22;;;;;;;;;;;;;;;16.50;44.23;101429.56;4997476;28;1061;-45
2023/03/19 03:24:47;;;;;;;;;;;;;;;16.40;44.05;101430.28;4997610;28;1231;-43
2023/03/19 03:27:13;;;;;;;;;;;;;;;17.68;42.78;101435.31;4997751;28;1037;-45
2023/03/19 03:29:38;;;;;;;;;;;;;;;16.60;44.93;101435.97;4997359;28;1052;-43
2023/03/19 03:32:06;;;;;;;;;;;;;;;16.33;45.11;101438.69;4996350;28;1898;-43
2023/03/19 03:34:31;;;;;;;;;;;;;;;17.34;43.75;101452.13;4996898;28;1064;-42
2023/03/19 03:36:57;;;;;;;;;;;;;;;16.60;44.87;101446.13;4997475;28;1052;-40
2023/03/19 03:39:22;;;;;;;;;;;;;;;17.31;43.73;101447.97;4997484;28;1112;-44
2023/03/19 03:41:48;;;;;;;;;;;;;;;17.77;42.51;101442.00;4997192;28;1136;-45
2023/03/19 03:44:14;;;;;;;;;;;;;;;16.76;44.39;101456.22;4997067;28;1226;-44
2023/03/19 03:46:42;;;;;;;;;;;;;;;16.45;44.79;101451.44;4995704;28;1192;-43
2023/03/19 03:49:08;;;;;;;;;;;;;;;17.49;42.92;101443.16;4996077;28;1223;-46
2023/03/19 03:51:34;;;;;;;;;;;;;;;16.67;44.63;101452.25;4997656;28;1975;-42
2023/03/19 03:54:00;;;;;;;;;;;;;;;17.39;43.48;101460.38;4995635;28;1268;-42
2023/03/19 03:56:25;;;;;;;;;;;;;;;16.91;44.30;101460.22;4990073;28;1212;-44
2023/03/19 03:58:51;;;;;;;;;;;;;;;16.44;44.77;101464.38;5021709;28;1108;-43
2023/03/19 04:01:17;;;;;;;;;;;;;;;17.69;42.75;101473.56;4997168;28;1204;-42
2023/03/19 04:03:47;;;;;;;;;;;;;;;16.63;44.64;101461.28;4995883;28;1290;-46
2023/03/19 04:06:16;;;;;;;;;;;;;;;18.11;41.87;101458.97;4995389;28;1360;-45
2023/03/19 04:08:42;;;;;;;;;;;;;;;17.52;42.78;101456.38;4995090;28;1387;-43
2023/03/19 04:11:07;;;;;;;;;;;;;;;16.84;44.51;101454.09;4996076;28;1278;-43
2023/03/19 04:13:35;;;;;;;;;;;;;;;18.35;41.52;101463.22;4995625;28;1984;-44
2023/03/19 04:16:05;;;;;;;;;;;;;;;17.05;44.15;101466.13;4995146;28;1351;-44
2023/03/19 04:18:30;;;;;;;;;;;;;;;16.64;44.33;101469.25;4995538;28;1561;-44
2023/03/19 04:20:56;;;;;;;;;;;;;;;17.61;42.97;101461.13;4996148;28;1265;-43
2023/03/19 04:23:22;;;;;;;;;;;;;;;16.73;44.60;101473.22;4995471;28;1224;-47
2023/03/19 04:25:47;;;;;;;;;;;;;;;16.39;44.80;101476.09;4995810;28;1125;-47
2023/03/19 04:28:13;;;;;;;;;;;;;;;17.64;42.77;101476.25;4995787;28;1105;-45
2023/03/19 04:30:38;;;;;;;;;;;;;;;16.74;44.58;101472.09;4995144;28;1210;-44
2023/03/19 04:33:05;;;;;;;;;;;;;;;17.87;42.45;101474.25;4996787;28;1910;-48
2023/03/19 04:35:31;;;;;;;;;;;;;;;17.53;43.21;101480.03;4995564;28;1187;-47
2023/03/19 04:37:57;;;;;;;;;;;;;;;18.21;41.88;101477.47;4994837;28;1095;-44
2023/03/19 04:40:23;;;;;;;;;;;;;;;19.35;39.13;101486.94;4995505;28;1186;-42
2023/03/19 04:42:49;;;;;;;;;;;;;;;17.57;42.79;101481.16;4996261;28;1172;-48
2023/03/19 04:45:35;;;;;;;;;;;;;;;17.05;43.68;101482.63;4995781;28;1587;-46
2023/03/19 04:48:01;;;;;;;;;;;;;;;17.59;42.77;101490.81;5027864;28;1103;-45
2023/03/19 04:50:28;;;;;;;;;;;;;;;16.98;44.14;101490.25;4995359;28;1484;-47
2023/03/19 04:52:54;;;;;;;;;;;;;;;16.74;44.55;101488.59;4994245;28;1902;-48
2023/03/19 04:55:20;;;;;;;;;;;;;;;17.30;43.77;101494.97;4994897;28;1491;-43
2023/03/19 04:57:57;;;;;;;;;;;;;;;16.68;44.58;101486.88;4995084;28;1653;-45
2023/03/19 05:00:27;;;;;;;;;;;;;;;17.10;44.30;101489.00;4994674;28;1505;-44
2023/03/19 05:02:54;;;;;;;;;;;;;;;17.04;44.19;101483.72;5010960;28;1276;-42
2023/03/19 05:05:20;;;;;;;;;;;;;;;17.49;43.74;101492.63;4995001;28;1127;-48
2023/03/19 05:07:46;;;;;;;;;;;;;;;18.70;40.56;101487.31;4995157;28;1406;-46
2023/03/19 05:10:12;;;;;;;;;;;;;;;17.22;43.85;101477.00;4999131;28;1394;-47
2023/03/19 05:12:38;;;;;;;;;;;;;;;16.85;44.09;101481.28;4999338;28;1898;-43
2023/03/19 05:15:06;;;;;;;;;;;;;;;16.49;44.60;101483.63;4998858;28;1159;-41
2023/03/19 05:17:35;;;;;;;;;;;;;;;16.45;44.20;101487.13;5031900;28;1183;-39
2023/03/19 05:20:20;;;;;;;;;;;;;;;16.83;44.37;101478.00;5000002;28;910;-40
2023/03/19 05:22:52;;;;;;;;;;;;;;;16.96;44.42;101482.28;4999003;28;1142;-42
2023/03/19 05:25:19;;;;;;;;;;;;;;;16.43;45.01;101493.72;4998868;28;1255;-41
2023/03/19 05:27:45;;;;;;;;;;;;;;;17.85;42.62;101488.25;5014924;28;1177;-42
2023/03/19 05:30:21;;;;;;;;;;;;;;;16.66;45.05;101488.22;4998300;28;1154;-47
2023/03/19 05:33:06;;;;;;;;;;;;;;;17.42;43.81;101485.44;4987447;28;1898;-41
2023/03/19 05:35:35;;;;;;;;;;;;;;;16.92;44.34;101486.63;4998680;28;1400;-46
2023/03/19 05:38:02;;;;;;;;;;;;;;;16.67;45.40;101487.97;4979478;28;1112;-47
2023/03/19 05:40:29;;;;;;;;;;;;;;;17.88;42.54;101478.63;5025986;28;1256;-42
2023/03/19 05:42:56;;;;;;;;;;;;;;;16.80;44.82;101477.66;4997718;28;1238;-48
2023/03/19 05:45:24;;;;;;;;;;;;;;;17.62;43.43;101492.22;4995627;28;1453;-45
2023/03/19 05:47:53;;;;;;;;;;;;;;;17.07;44.24;101495.03;5018212;28;1147;-44
2023/03/19 05:50:20;;;;;;;;;;;;;;;16.63;44.83;101491.47;4988615;28;1565;-43
2023/03/19 05:53:24;;;;;;;;;;;;;;;16.34;45.08;101486.16;4987619;28;1972;-46
2023/03/19 05:56:11;;;;;;;;;;;;;;;17.19;44.04;101477.53;4997988;28;954;-40
2023/03/19 05:58:51;;;;;;;;;;;;;;;17.21;44.27;101483.63;4995765;28;1521;-45
2023/03/19 06:01:21;;;;;;;;;;;;;;;18.81;40.48;101477.97;4998179;28;1198;-47
2023/03/19 06:03:47;;;;;;;;;;;;;;;17.21;44.02;101472.63;4997847;28;1207;-45
2023/03/19 06:06:13;;;;;;;;;;;;;;;16.72;44.74;101477.03;4998019;28;1230;-47
2023/03/19 06:08:42;;;;;;;;;;;;;;;18.02;42.21;101477.13;4997620;28;1245;-43
2023/03/19 06:11:14;;;;;;;;;;;;;;;17.61;43.23;101487.78;4998031;28;1170;-44
2023/03/19 06:13:42;;;;;;;;;;;;;;;17.62;43.00;101479.28;4997387;28;1977;-43
2023/03/19 06:16:12;;;;;;;;;;;;;;;17.13;44.20;101492.34;4997468;28;1293;-46
2023/03/19 06:18:46;;;;;;;;;;;;;;;16.86;44.57;101484.88;4997301;28;842;-48
2023/03/19 06:21:13;;;;;;;;;;;;;;;16.61;45.25;101497.22;4996340;28;1156;-43
2023/03/19 06:23:39;;;;;;;;;;;;;;;16.37;45.65;101494.75;4997487;28;1148;-45
2023/03/19 06:26:06;;;;;;;;;;;;;;;16.28;45.81;101500.94;4997467;28;1273;-46
2023/03/19 06:28:40;;;;;;;;;;;;;;;16.06;46.31;101502.56;4997547;28;1353;-48
2023/03/19 06:31:06;;;;;;;;;;;;;;;16.01;46.61;101509.88;4997233;28;1131;-46
2023/03/19 06:33:50;;;;;;;;;;;;;;;15.87;46.73;101514.88;4998485;28;1905;-46
2023/03/19 06:36:16;;;;;;;;;;;;;;;15.70;47.11;101510.19;4998407;28;882;-44
2023/03/19 06:38:42;;;;;;;;;;;;;;;15.62;47.31;101507.88;4997464;28;1390;-43
2023/03/19 06:41:07;;;;;;;;;;;;;;;15.50;47.40;101510.72;4998249;28;846;-42
2023/03/19 06:43:35;;;;;;;;;;;;;;;15.36;47.67;101510.19;4997998;28;858;-45
2023/03/19 06:46:05;;;;;;;;;;;;;;;15.31;47.81;101514.75;4998546;28;1216;-48
2023/03/19 06:48:31;;;;;;;;;;;;;;;16.02;46.19;101517.00;4998735;28;812;-48
2023/03/19 06:50:57;;;;;;;;;;;;;;;17.19;43.26;101513.28;4998109;28;1282;-47
2023/03/19 06:53:22;;;;;;;;;;;;;;;16.16;45.48;101523.81;4998193;28;1902;-45
2023/03/19 06:55:48;;;;;;;;;;;;;;;15.80;46.64;101526.03;4997748;28;1160;-48
2023/03/19 06:58:13;;;;;;;;;;;;;;;15.55;47.08;101534.63;4998166;28;879;-42
2023/03/19 07:00:40;;;;;;;;;;;;;;;15.46;47.51;101530.63;4997970;28;1160;-46
2023/03/19 07:03:06;;;;;;;;;;;;;;;15.26;47.76;101523.69;4998210;28;866;-46
2023/03/19 07:05:32;;;;;;;;;;;;;;;16.40;45.17;101532.66;4996374;28;1454;-43
2023/03/19 07:07:57;;;;;;;;;;;;;;;16.66;44.32;101526.66;4997091;28;1224;-42
2023/03/19 07:10:23;;;;;;;;;;;;;;;15.90;46.14;101539.06;4997995;28;1089;-44
2023/03/19 07:12:48;;;;;;;;;;;;;;;15.60;46.95;101542.94;4997506;28;1971;-42
2023/03/19 07:15:14;;;;;;;;;;;;;;;15.41;47.54;101536.84;4997628;28;1180;-43
2023/03/19 07:17:40;;;;;;;;;;;;;;;15.29;47.66;101542.41;4998037;28;868;-42
2023/03/19 07:20:05;;;;;;;;;;;;;;;16.81;44.10;101546.06;4997371;28;1081;-45
2023/03/19 07:22:31;;;;;;;;;;;;;;;16.64;44.37;101537.09;4998089;28;791;-44
2023/03/19 07:24:56;;;;;;;;;;;;;;;15.92;46.09;101539.63;4998332;28;809;-47
2023/03/19 07:27:22;;;;;;;;;;;;;;;15.66;46.62;101536.44;4997399;28;976;-45
2023/03/19 07:29:47;;;;;;;;;;;;;;;15.49;47.25;101530.16;4998086;28;850;-41
2023/03/19 07:32:13;;;;;;;;;;;;;;;15.35;47.42;101535.09;4996977;28;1965;-43
2023/03/19 07:34:38;;;;;;;;;;;;;;;15.90;46.40;101530.84;4997302;28;774;-42
2023/03/19 07:37:05;;;;;;;;;;;;;;;16.98;43.71;101546.03;4997479;28;889;-42
2023/03/19 07:39:30;;;;;;;;;;;;;;;15.97;45.68;101542.47;4997693;28;809;-43
2023/03/19 07:41:56;;;;;;;;;;;;;;;15.62;46.68;101529.81;4997101;28;874;-44
2023/03/19 07:44:22;;;;;;;;;;;;;;;15.48;47.07;101533.97;4997018;28;1239;-45
2023/03/19 07:46:47;;;;;;;;;;;;;;;15.51;47.01;101541.69;4997325;28;878;-46
2023/03/19 07:49:13;;;;;;;;;;;;;;;17.08;43.53;101532.41;4997161;28;832;-41
2023/03/19 07:51:38;;;;;;;;;;;;;;;16.35;44.78;101540.00;4997191;28;1965;-44
2023/03/19 07:54:04;;;;;;;;;;;;;;;15.82;46.26;101550.44;4997165;28;798;-45
2023/03/19 07:56:30;;;;;;;;;;;;;;;15.58;46.78;101545.09;4996972;28;837;-44
2023/03/19 07:58:55;;;;;;;;;;;;;;;15.36;47.33;101543.06;4997036;28;901;-41
2023/03/19 08:01:21;;;;;;;;;;;;;;;15.39;47.35;101537.09;4997410;28;889;-43
2023/03/19 08:03:47;;;;;;;;;;;;;;;17.00;43.75;101543.84;4996496;28;826;-43
2023/03/19 08:06:12;;;;;;;;;;;;;;;16.39;44.73;101543.88;4997077;28;1081;-42
2023/03/19 08:08:38;;;;;;;;;;;;;;;15.84;46.12;101543.63;4995929;28;1212;-42
2023/03/19 08:11:03;;;;;;;;;;;;;;;15.56;46.94;101547.25;4996546;28;1314;-42
2023/03/19 08:13:30;;;;;;;;;;;;;;;15.39;47.37;101537.09;4996326;28;1914;-43
2023/03/19 08:15:56;;;;;;;;;;;;;;;16.45;45.08;101536.56;4996921;28;1240;-45
2023/03/19 08:18:21;;;;;;;;;;;;;;;16.69;43.95;101543.47;4996467;28;1416;-42
2023/03/19 08:20:47;;;;;;;;;;;;;;;15.88;46.06;101538.50;4996329;28;1235;-46
2023/03/19 08:23:12;;;;;;;;;;;;;;;15.62;46.62;101548.19;4996330;28;1196;-43
2023/03/19 08:25:38;;;;;;;;;;;;;;;15.46;47.16;101542.44;4996536;28;1290;-44
2023/03/19 08:28:03;;;;;;;;;;;;;;;15.51;47.13;101544.41;4996625;28;1228;-43
2023/03/19 08:30:29;;;;;;;;;;;;;;;17.11;43.06;101539.31;4996616;28;1204;-45
2023/03/19 08:32:55;;;;;;;;;;;;;;;16.53;44.26;101541.59;4996329;28;1914;-42
2023/03/19 08:35:20;;;;;;;;;;;;;;;15.84;46.17;101540.06;4996530;28;1176;-40
2023/03/19 08:37:46;;;;;;;;;;;;;;;15.64;46.53;101537.78;4997158;28;798;-44
2023/03/19 08:40:11;;;;;;;;;;;;;;;15.47;47.11;101535.03;4996399;28;1311;-42
2023/03/19 08:42:40;;;;;;;;;;;;;;;16.51;44.62;101535.53;4996502;28;1298;-46
2023/03/19 08:45:07;;;;;;;;;;;;;;;17.13;43.04;101536.31;4999917;28;1074;-46
2023/03/19 08:47:32;;;;;;;;;;;;;;;16.12;45.49;101533.63;5000517;28;887;-46
2023/03/19 08:49:58;;;;;;;;;;;;;;;15.79;46.16;101534.47;5000504;28;890;-47
2023/03/19 08:52:23;;;;;;;;;;;;;;;15.59;46.67;101524.00;5000834;28;1983;-44
2023/03/19 08:54:49;;;;;;;;;;;;;;;15.29;47.42;101515.00;4999859;28;1200;-42
2023/03/19 08:57:14;;;;;;;;;;;;;;;15.28;47.37;101526.19;4999610;28;1089;-45
2023/03/19 08:59:40;;;;;;;;;;;;;;;16.07;45.80;101526.16;5000669;28;838;-43
2023/03/19 09:02:05;;;;;;;;;;;;;;;17.19;43.00;101527.81;5000870;28;771;-47
2023/03/19 09:04:36;;;;;;;;;;;;;;;16.13;45.23;101528.97;4999977;28;798;-48
2023/03/19 09:07:01;;;;;;;;;;;;;;;15.69;46.37;101533.22;4999960;28;806;-48
2023/03/19 09:09:27;;;;;;;;;;;;;;;15.51;46.92;101533.44;5000274;28;909;-42
2023/03/19 09:11:52;;;;;;;;;;;;;;;16.42;44.82;101533.25;5000057;28;1976;-43
2023/03/19 09:14:19;;;;;;;;;;;;;;;16.77;43.78;101534.78;5000349;28;814;-45
2023/03/19 09:16:44;;;;;;;;;;;;;;;15.95;45.83;101527.31;4999831;28;845;-45
2023/03/19 09:19:10;;;;;;;;;;;;;;;15.66;46.59;101530.16;4999349;28;1026;-40
2023/03/19 09:21:35;;;;;;;;;;;;;;;15.44;47.08;101527.31;4999876;28;1397;-43
2023/03/19 09:24:01;;;;;;;;;;;;;;;15.33;47.25;101529.88;5000106;28;1181;-42
2023/03/19 09:26:27;;;;;;;;;;;;;;;16.46;44.82;101525.31;4999347;28;811;-45
2023/03/19 09:28:52;;;;;;;;;;;;;;;17.07;43.13;101521.69;4999871;28;823;-43
2023/03/19 09:31:18;;;;;;;;;;;;;;;16.12;45.22;101527.31;5000005;28;834;-46
2023/03/19 09:33:43;;;;;;;;;;;;;;;15.73;46.30;101531.63;4999495;28;1969;-41
2023/03/19 09:36:09;;;;;;;;;;;;;;;15.53;46.80;101534.06;4999646;28;810;-44
2023/03/19 09:38:34;;;;;;;;;;;;;;;15.34;47.24;101526.03;5000191;28;783;-42
2023/03/19 09:41:06;;;;;;;;;;;;;;;16.49;44.81;101521.25;4999413;28;826;-46
2023/03/19 09:43:46;;;;;;;;;;;;;;;16.89;43.69;101509.94;4999817;28;888;-46
2023/03/19 09:46:38;;;;;;;;;;;;;;;15.99;45.83;101514.78;4999069;28;1158;-45
2023/03/19 09:49:11;;;;;;;;;;;;;;;15.61;46.75;101508.94;4968922;28;1163;-45
2023/03/19 09:51:47;;;;;;;;;;;;;;;16.08;45.54;101500.38;4999657;28;794;-47
2023/03/19 09:54:20;;;;;;;;;;;;;;;16.69;44.03;101505.03;4998566;28;854;-46
2023/03/19 09:56:45;;;;;;;;;;;;;;;15.97;45.65;101495.81;4998331;28;889;-42
2023/03/19 09:59:11;;;;;;;;;;;;;;;15.57;46.78;101489.44;4997936;28;1196;-41
2023/03/19 10:01:36;;;;;;;;;;;;;;;15.47;46.99;101488.44;4997859;28;1185;-43
2023/03/19 10:04:14;;;;;;;;;;;;;;;16.03;45.71;101491.25;4999151;28;1314;-46
2023/03/19 10:06:40;;;;;;;;;;;;;;;17.11;43.15;101484.34;4993693;28;1296;-44
2023/03/19 10:09:18;;;;;;;;;;;;;;;16.16;45.22;101484.56;4998913;28;1552;-41
2023/03/19 10:11:55;;;;;;;;;;;;;;;15.78;46.13;101483.44;4999118;28;1906;-45
2023/03/19 10:14:39;;;;;;;;;;;;;;;15.53;46.80;101480.06;4998089;28;739;-47
2023/03/19 10:17:05;;;;;;;;;;;;;;;15.96;46.12;101487.84;4998442;28;959;-45
2023/03/19 10:19:51;;;;;;;;;;;;;;;17.35;42.69;101486.75;4999078;28;1067;-47
2023/03/19 10:22:21;;;;;;;;;;;;;;;16.25;45.03;101483.03;4998266;28;1702;-44
2023/03/19 10:24:46;;;;;;;;;;;;;;;15.80;46.01;101486.81;4997358;28;865;-48
2023/03/19 10:27:21;;;;;;;;;;;;;;;15.57;46.87;101488.59;4998893;28;1212;-43
2023/03/19 10:29:46;;;;;;;;;;;;;;;15.44;47.09;101495.25;4997274;28;1137;-42
2023/03/19 10:32:17;;;;;;;;;;;;;;;15.30;47.34;101480.19;4998560;28;1910;-42
2023/03/19 10:34:47;;;;;;;;;;;;;;;16.88;43.64;101479.94;4997137;28;885;-42
2023/03/19 10:37:20;;;;;;;;;;;;;;;16.55;44.24;101466.13;4998528;28;936;-45
2023/03/19 10:39:46;;;;;;;;;;;;;;;15.88;46.16;101469.94;4997977;28;1267;-45
2023/03/19 10:42:30;;;;;;;;;;;;;;;15.65;46.50;101482.69;4998229;28;1220;-42
2023/03/19 10:44:58;;;;;;;;;;;;;;;15.42;47.32;101474.63;4997394;28;1544;-42
2023/03/19 10:47:26;;;;;;;;;;;;;;;15.25;47.75;101469.16;4989343;28;1074;-47
2023/03/19 10:49:52;;;;;;;;;;;;;;;16.83;43.88;101472.50;4997959;28;1639;-43
2023/03/19 10:52:19;;;;;;;;;;;;;;;16.70;43.85;101461.91;4998265;28;1907;-48
2023/03/19 10:54:45;;;;;;;;;;;;;;;15.90;45.93;101459.53;4996707;28;865;-47
2023/03/19 10:57:26;;;;;;;;;;;;;;;15.67;46.74;101455.03;4998212;28;897;-44
2023/03/19 10:59:52;;;;;;;;;;;;;;;15.43;47.08;101460.72;4998404;28;801;-42
2023/03/19 11:02:18;;;;;;;;;;;;;;;15.28;47.62;101458.53;4997817;28;910;-45
2023/03/19 11:04:45;;;;;;;;;;;;;;;16.58;44.47;101449.16;4998146;28;747;-43
2023/03/19 11:07:11;;;;;;;;;;;;;;;16.64;44.08;101438.22;4997911;28;795;-43
2023/03/19 11:09:37;;;;;;;;;;;;;;;15.83;46.08;101435.00;4997167;28;940;-46
2023/03/19 11:12:15;;;;;;;;;;;;;;;15.57;46.94;101441.97;4997822;28;1906;-42
2023/03/19 11:14:43;;;;;;;;;;;;;;;15.39;47.41;101441.19;4997822;28;827;-46
2023/03/19 11:17:24;;;;;;;;;;;;;;;17.00;43.63;101435.84;4996692;28;906;-45
2023/03/19 11:19:51;;;;;;;;;;;;;;;16.66;44.18;101431.41;4997632;28;823;-41
2023/03/19 11:22:19;;;;;;;;;;;;;;;15.98;45.76;101428.91;4997606;28;900;-45
2023/03/19 11:24:48;;;;;;;;;;;;;;;15.67;46.55;101422.97;4997420;28;1001;-45
2023/03/19 11:27:14;;;;;;;;;;;;;;;15.47;47.08;101423.47;4997870;28;794;-45
2023/03/19 11:29:40;;;;;;;;;;;;;;;15.81;46.33;101417.16;4997604;28;917;-47
2023/03/19 11:32:09;;;;;;;;;;;;;;;17.31;43.10;101406.75;4997209;28;1971;-45
2023/03/19 11:34:38;;;;;;;;;;;;;;;16.40;44.71;101417.38;4997844;28;870;-44
2023/03/19 11:37:13;;;;;;;;;;;;;;;15.88;46.07;101424.13;4996294;28;811;-44
2023/03/19 11:39:44;;;;;;;;;;;;;;;15.59;47.06;101415.16;4995804;28;771;-43
2023/03/19 11:42:20;;;;;;;;;;;;;;;15.48;47.21;101418.84;4996447;28;830;-42
2023/03/19 11:45:04;;;;;;;;;;;;;;;16.03;45.91;101415.28;4995903;28;1029;-44
2023/03/19 11:47:42;;;;;;;;;;;;;;;17.07;43.50;101401.59;4997074;28;811;-46
2023/03/19 11:50:23;;;;;;;;;;;;;;;16.07;45.73;101404.63;4997256;28;834;-42
2023/03/19 11:52:58;;;;;;;;;;;;;;;15.70;46.76;101399.72;4997385;28;1902;-39
2023/03/19 11:55:25;;;;;;;;;;;;;;;15.47;47.08;101401.53;4997468;28;842;-44
2023/03/19 11:57:54;;;;;;;;;;;;;;;15.85;46.25;101402.69;4996328;28;855;-45
2023/03/19 12:00:28;;;;;;;;;;;;;;;17.30;43.22;101399.56;4997001;28;850;-46
2023/03/19 12:03:06;;;;;;;;;;;;;;;16.25;45.50;101404.28;4997443;28;763;-41
2023/03/19 12:05:32;;;;;;;;;;;;;;;15.77;46.31;101405.00;4997052;28;856;-44
2023/03/19 12:08:10;;;;;;;;;;;;;;;15.56;46.91;101397.31;4996152;28;851;-42
2023/03/19 12:10:58;;;;;;;;;;;;;;;15.39;47.59;101389.13;4997319;28;858;-46
2023/03/19 12:13:29;;;;;;;;;;;;;;;16.32;45.25;101381.31;4996797;28;1960;-48
2023/03/19 12:16:05;;;;;;;;;;;;;;;17.30;42.99;101383.09;4996731;28;826;-47
2023/03/19 12:18:30;;;;;;;;;;;;;;;16.18;45.50;101386.38;4996179;28;826;-45
2023/03/19 12:21:02;;;;;;;;;;;;;;;15.80;46.40;101388.09;4997442;28;778;-43
2023/03/19 12:23:36;;;;;;;;;;;;;;;15.58;47.06;101383.34;4996519;28;866;-46
2023/03/19 12:26:06;;;;;;;;;;;;;;;15.74;46.71;101387.97;4995647;28;827;-45
2023/03/19 12:28:45;;;;;;;;;;;;;;;17.30;42.96;101388.56;4996945;28;782;-46
2023/03/19 12:31:28;;;;;;;;;;;;;;;16.29;45.21;101385.41;4995494;28;890;-46
2023/03/19 12:34:02;;;;;;;;;;;;;;;15.88;46.24;101382.16;4995430;28;1902;-43
2023/03/19 12:36:28;;;;;;;;;;;;;;;15.63;47.03;101377.94;4996136;28;1192;-44
2023/03/19 12:39:18;;;;;;;;;;;;;;;16.32;45.39;101382.13;4995470;28;1212;-44
2023/03/19 12:41:43;;;;;;;;;;;;;;;16.86;43.88;101377.75;4991545;28;1518;-44
2023/03/19 12:44:10;;;;;;;;;;;;;;;16.02;45.88;101374.34;4995253;28;1194;-41
2023/03/19 12:46:48;;;;;;;;;;;;;;;15.75;46.53;101380.56;4995009;28;866;-42
2023/03/19 12:49:14;;;;;;;;;;;;;;;15.54;47.23;101384.94;4995990;28;843;-43
2023/03/19 12:51:41;;;;;;;;;;;;;;;15.39;47.52;101380.88;4995751;28;824;-47
2023/03/19 12:54:09;;;;;;;;;;;;;;;16.51;44.99;101377.13;4994795;28;1979;-44
2023/03/19 12:56:53;;;;;;;;;;;;;;;16.94;43.81;101360.81;4997008;28;893;-43
2023/03/19 12:59:21;;;;;;;;;;;;;;;16.01;46.00;101375.47;4996539;28;901;-45